sensor_id;sensor_type;location;lat;lon;timestamp;pressure;altitude;pressure_sealevel;temperature;humidity
59337;BME280;45115;52.002;4.686;2023-03-13T00:01:41;100228.06;;;9.38;94.58
59337;BME280;45115;52.002;4.686;2023-03-13T00:04:08;100219.59;;;9.41;94.45
59337;BME280;45115;52.002;4.686;2023-03-13T00:06:36;100215.44;;;9.37;95.02
59337;BME280;45115;52.002;4.686;2023-03-13T00:09:04;100207.22;;;9.37;95.21
59337;BME280;45115;52.002;4.686;2023-03-13T00:11:31;100199.44;;;9.42;95.66
59337;BME280;45115;52.002;4.686;2023-03-13T00:14:00;100193.25;;;9.40;95.53
59337;BME280;45115;52.002;4.686;2023-03-13T00:16:28;100188.66;;;9.40;95.50
59337;BME280;45115;52.002;4.686;2023-03-13T00:18:57;100168.91;;;9.46;95.82
59337;BME280;45115;52.002;4.686;2023-03-13T00:21:25;100161.38;;;9.48;95.69
59337;BME280;45115;52.002;4.686;2023-03-13T00:23:53;100158.97;;;9.45;95.85
59337;BME280;45115;52.002;4.686;2023-03-13T00:26:21;100144.31;;;9.46;95.64
59337;BME280;45115;52.002;4.686;2023-03-13T00:28:48;100136.09;;;9.46;96.19
59337;BME280;45115;52.002;4.686;2023-03-13T00:31:17;100129.63;;;9.47;95.91
59337;BME280;45115;52.002;4.686;2023-03-13T00:33:45;100121.09;;;9.50;96.07
59337;BME280;45115;52.002;4.686;2023-03-13T00:36:15;100125.56;;;9.51;95.86
59337;BME280;45115;52.002;4.686;2023-03-13T00:38:42;100117.19;;;9.53;96.19
59337;BME280;45115;52.002;4.686;2023-03-13T00:41:11;100108.13;;;9.52;95.67
59337;BME280;45115;52.002;4.686;2023-03-13T00:43:38;100101.03;;;9.59;96.15
59337;BME280;45115;52.002;4.686;2023-03-13T00:46:06;100095.38;;;9.61;96.33
59337;BME280;45115;52.002;4.686;2023-03-13T00:48:33;100087.19;;;9.61;96.44
59337;BME280;45115;52.002;4.686;2023-03-13T00:51:01;100084.28;;;9.62;96.43
59337;BME280;45115;52.002;4.686;2023-03-13T00:53:29;100071.31;;;9.64;96.33
59337;BME280;45115;52.002;4.686;2023-03-13T00:55:58;100065.56;;;9.67;96.59
59337;BME280;45115;52.002;4.686;2023-03-13T00:58:27;100069.50;;;9.73;96.57
59337;BME280;45115;52.002;4.686;2023-03-13T01:00:54;100064.03;;;9.73;95.92
59337;BME280;45115;52.002;4.686;2023-03-13T01:03:23;100060.47;;;9.72;96.16
59337;BME280;45115;52.002;4.686;2023-03-13T01:05:55;100047.50;;;9.74;96.11
59337;BME280;45115;52.002;4.686;2023-03-13T01:08:24;100049.41;;;9.82;95.87
59337;BME280;45115;52.002;4.686;2023-03-13T01:10:58;100034.75;;;9.83;96.23
59337;BME280;45115;52.002;4.686;2023-03-13T01:13:24;100030.34;;;9.90;96.25
59337;BME280;45115;52.002;4.686;2023-03-13T01:15:51;100022.97;;;9.90;96.15
59337;BME280;45115;52.002;4.686;2023-03-13T01:18:18;100022.28;;;9.88;96.08
59337;BME280;45115;52.002;4.686;2023-03-13T01:20:44;100016.00;;;9.96;96.42
59337;BME280;45115;52.002;4.686;2023-03-13T01:23:11;100007.63;;;9.97;96.41
59337;BME280;45115;52.002;4.686;2023-03-13T01:25:38;100005.44;;;10.01;95.90
59337;BME280;45115;52.002;4.686;2023-03-13T01:28:06;99994.03;;;10.05;96.15
59337;BME280;45115;52.002;4.686;2023-03-13T01:30:33;99987.84;;;10.03;95.84
59337;BME280;45115;52.002;4.686;2023-03-13T01:33:00;99991.00;;;10.08;96.20
59337;BME280;45115;52.002;4.686;2023-03-13T01:35:27;99991.53;;;10.12;96.10
59337;BME280;45115;52.002;4.686;2023-03-13T01:37:54;99978.38;;;10.16;95.52
59337;BME280;45115;52.002;4.686;2023-03-13T01:40:20;99984.53;;;10.18;95.96
59337;BME280;45115;52.002;4.686;2023-03-13T01:42:49;99968.31;;;10.24;95.99
59337;BME280;45115;52.002;4.686;2023-03-13T01:45:53;99961.50;;;10.28;96.39
59337;BME280;45115;52.002;4.686;2023-03-13T01:48:27;99955.69;;;10.31;95.98
59337;BME280;45115;52.002;4.686;2023-03-13T01:50:59;99945.59;;;10.32;96.53
59337;BME280;45115;52.002;4.686;2023-03-13T01:53:30;99942.19;;;10.38;96.19
59337;BME280;45115;52.002;4.686;2023-03-13T01:56:03;99939.16;;;10.41;96.80
59337;BME280;45115;52.002;4.686;2023-03-13T01:58:31;99920.50;;;10.44;96.06
59337;BME280;45115;52.002;4.686;2023-03-13T02:00:59;99918.44;;;10.46;96.23
59337;BME280;45115;52.002;4.686;2023-03-13T02:03:26;99916.03;;;10.43;96.89
59337;BME280;45115;52.002;4.686;2023-03-13T02:05:54;99902.34;;;10.43;96.91
59337;BME280;45115;52.002;4.686;2023-03-13T02:08:23;99908.34;;;10.47;97.00
59337;BME280;45115;52.002;4.686;2023-03-13T02:10:55;99898.59;;;10.52;96.93
59337;BME280;45115;52.002;4.686;2023-03-13T02:13:24;99893.66;;;10.56;96.85
59337;BME280;45115;52.002;4.686;2023-03-13T02:15:51;99883.56;;;10.56;96.76
59337;BME280;45115;52.002;4.686;2023-03-13T02:18:19;99880.13;;;10.62;96.94
59337;BME280;45115;52.002;4.686;2023-03-13T02:20:46;99879.81;;;10.65;96.64
59337;BME280;45115;52.002;4.686;2023-03-13T02:23:20;99875.22;;;10.74;96.59
59337;BME280;45115;52.002;4.686;2023-03-13T02:25:51;99884.94;;;10.76;96.18
59337;BME280;45115;52.002;4.686;2023-03-13T02:28:24;99875.38;;;10.80;96.28
59337;BME280;45115;52.002;4.686;2023-03-13T02:30:54;99886.16;;;10.82;96.36
59337;BME280;45115;52.002;4.686;2023-03-13T02:33:26;99878.47;;;10.85;96.29
59337;BME280;45115;52.002;4.686;2023-03-13T02:35:53;99872.97;;;10.85;95.88
59337;BME280;45115;52.002;4.686;2023-03-13T02:38:23;99870.94;;;10.87;96.48
59337;BME280;45115;52.002;4.686;2023-03-13T02:40:52;99872.81;;;10.95;95.69
59337;BME280;45115;52.002;4.686;2023-03-13T02:43:23;99883.25;;;10.99;95.56
59337;BME280;45115;52.002;4.686;2023-03-13T02:46:02;99877.94;;;11.06;95.67
59337;BME280;45115;52.002;4.686;2023-03-13T02:48:33;99879.16;;;11.03;95.64
59337;BME280;45115;52.002;4.686;2023-03-13T02:51:01;99880.00;;;11.12;95.67
59337;BME280;45115;52.002;4.686;2023-03-13T02:53:29;99878.13;;;11.12;95.36
59337;BME280;45115;52.002;4.686;2023-03-13T02:55:58;99873.47;;;11.13;95.83
59337;BME280;45115;52.002;4.686;2023-03-13T02:58:24;99875.72;;;11.17;95.01
59337;BME280;45115;52.002;4.686;2023-03-13T03:00:51;99869.38;;;11.17;95.21
59337;BME280;45115;52.002;4.686;2023-03-13T03:03:18;99874.50;;;11.20;95.18
59337;BME280;45115;52.002;4.686;2023-03-13T03:05:45;99854.81;;;11.24;95.03
59337;BME280;45115;52.002;4.686;2023-03-13T03:08:11;99838.56;;;11.23;94.84
59337;BME280;45115;52.002;4.686;2023-03-13T03:10:38;99844.00;;;11.31;95.05
59337;BME280;45115;52.002;4.686;2023-03-13T03:13:06;99835.78;;;11.31;95.27
59337;BME280;45115;52.002;4.686;2023-03-13T03:15:33;99830.44;;;11.38;94.96
59337;BME280;45115;52.002;4.686;2023-03-13T03:18:00;99831.13;;;11.40;94.85
59337;BME280;45115;52.002;4.686;2023-03-13T03:20:26;99831.63;;;11.43;94.97
59337;BME280;45115;52.002;4.686;2023-03-13T03:22:55;99830.78;;;11.51;94.45
59337;BME280;45115;52.002;4.686;2023-03-13T03:25:21;99823.56;;;11.50;94.55
59337;BME280;45115;52.002;4.686;2023-03-13T03:27:48;99822.00;;;11.55;94.59
59337;BME280;45115;52.002;4.686;2023-03-13T03:30:17;99825.75;;;11.62;94.15
59337;BME280;45115;52.002;4.686;2023-03-13T03:32:44;99837.25;;;11.66;94.51
59337;BME280;45115;52.002;4.686;2023-03-13T03:35:10;99832.63;;;11.66;93.90
59337;BME280;45115;52.002;4.686;2023-03-13T03:37:37;99832.09;;;11.63;94.70
59337;BME280;45115;52.002;4.686;2023-03-13T03:40:05;99831.59;;;11.59;94.51
59337;BME280;45115;52.002;4.686;2023-03-13T03:42:32;99824.56;;;11.57;94.54
59337;BME280;45115;52.002;4.686;2023-03-13T03:44:58;99825.25;;;11.59;94.77
59337;BME280;45115;52.002;4.686;2023-03-13T03:47:26;99811.53;;;11.59;95.07
59337;BME280;45115;52.002;4.686;2023-03-13T03:49:53;99796.97;;;11.58;94.79
59337;BME280;45115;52.002;4.686;2023-03-13T03:52:20;99809.47;;;11.61;95.04
59337;BME280;45115;52.002;4.686;2023-03-13T03:54:46;99810.88;;;11.65;95.20
59337;BME280;45115;52.002;4.686;2023-03-13T03:57:15;99806.91;;;11.67;95.16
59337;BME280;45115;52.002;4.686;2023-03-13T03:59:46;99809.66;;;11.67;95.33
59337;BME280;45115;52.002;4.686;2023-03-13T04:02:13;99798.16;;;11.64;94.96
59337;BME280;45115;52.002;4.686;2023-03-13T04:04:42;99803.34;;;11.67;94.99
59337;BME280;45115;52.002;4.686;2023-03-13T04:07:13;99800.06;;;11.63;95.41
59337;BME280;45115;52.002;4.686;2023-03-13T04:09:40;99792.50;;;11.65;95.25
59337;BME280;45115;52.002;4.686;2023-03-13T04:12:09;99792.16;;;11.60;95.47
59337;BME280;45115;52.002;4.686;2023-03-13T04:14:41;99790.97;;;11.63;95.22
59337;BME280;45115;52.002;4.686;2023-03-13T04:17:10;99788.41;;;11.61;95.28
59337;BME280;45115;52.002;4.686;2023-03-13T04:19:37;99798.69;;;11.67;95.08
59337;BME280;45115;52.002;4.686;2023-03-13T04:22:05;99791.31;;;11.60;95.56
59337;BME280;45115;52.002;4.686;2023-03-13T04:24:32;99782.06;;;11.61;95.41
59337;BME280;45115;52.002;4.686;2023-03-13T04:26:58;99778.78;;;11.65;95.56
59337;BME280;45115;52.002;4.686;2023-03-13T04:29:27;99782.59;;;11.64;95.16
59337;BME280;45115;52.002;4.686;2023-03-13T04:32:06;99782.22;;;11.67;95.39
59337;BME280;45115;52.002;4.686;2023-03-13T04:34:52;99779.16;;;11.70;95.24
59337;BME280;45115;52.002;4.686;2023-03-13T04:37:35;99781.34;;;11.75;95.38
59337;BME280;45115;52.002;4.686;2023-03-13T04:40:20;99774.00;;;11.67;95.61
59337;BME280;45115;52.002;4.686;2023-03-13T04:43:10;99772.06;;;11.76;95.33
59337;BME280;45115;52.002;4.686;2023-03-13T04:45:47;99759.56;;;11.73;95.31
59337;BME280;45115;52.002;4.686;2023-03-13T04:48:36;99773.78;;;11.77;94.88
59337;BME280;45115;52.002;4.686;2023-03-13T04:51:26;99773.25;;;11.81;94.48
59337;BME280;45115;52.002;4.686;2023-03-13T04:54:29;99754.72;;;11.83;94.41
59337;BME280;45115;52.002;4.686;2023-03-13T04:57:08;99750.78;;;11.86;93.93
59337;BME280;45115;52.002;4.686;2023-03-13T04:59:45;99755.22;;;11.87;93.68
59337;BME280;45115;52.002;4.686;2023-03-13T05:02:15;99741.63;;;11.93;93.04
59337;BME280;45115;52.002;4.686;2023-03-13T05:04:56;99731.13;;;11.97;92.26
59337;BME280;45115;52.002;4.686;2023-03-13T05:07:42;99738.88;;;11.93;92.11
59337;BME280;45115;52.002;4.686;2023-03-13T05:10:29;99741.22;;;12.04;91.48
59337;BME280;45115;52.002;4.686;2023-03-13T05:13:34;99727.88;;;12.01;91.42
59337;BME280;45115;52.002;4.686;2023-03-13T05:16:11;99715.84;;;12.02;91.41
59337;BME280;45115;52.002;4.686;2023-03-13T05:19:04;99721.63;;;12.07;91.05
59337;BME280;45115;52.002;4.686;2023-03-13T05:21:54;99716.81;;;12.09;90.59
59337;BME280;45115;52.002;4.686;2023-03-13T05:24:40;99707.88;;;12.15;89.72
59337;BME280;45115;52.002;4.686;2023-03-13T05:27:18;99694.31;;;12.14;89.32
59337;BME280;45115;52.002;4.686;2023-03-13T05:30:14;99699.63;;;12.15;89.05
59337;BME280;45115;52.002;4.686;2023-03-13T05:33:07;99700.13;;;12.19;88.62
59337;BME280;45115;52.002;4.686;2023-03-13T05:35:44;99696.03;;;12.15;88.40
59337;BME280;45115;52.002;4.686;2023-03-13T05:38:46;99700.47;;;12.16;88.17
59337;BME280;45115;52.002;4.686;2023-03-13T05:41:20;99686.19;;;12.20;87.30
59337;BME280;45115;52.002;4.686;2023-03-13T05:43:54;99690.31;;;12.24;87.30
59337;BME280;45115;52.002;4.686;2023-03-13T05:46:53;99676.72;;;12.23;87.09
59337;BME280;45115;52.002;4.686;2023-03-13T05:49:32;99683.75;;;12.25;87.06
59337;BME280;45115;52.002;4.686;2023-03-13T05:52:28;99684.44;;;12.27;86.56
59337;BME280;45115;52.002;4.686;2023-03-13T05:55:09;99684.34;;;12.35;85.65
59337;BME280;45115;52.002;4.686;2023-03-13T05:57:54;99666.19;;;12.34;86.00
59337;BME280;45115;52.002;4.686;2023-03-13T06:00:42;99696.38;;;12.34;86.14
59337;BME280;45115;52.002;4.686;2023-03-13T06:03:29;99674.16;;;12.21;86.52
59337;BME280;45115;52.002;4.686;2023-03-13T06:05:57;99676.38;;;12.26;86.43
59337;BME280;45115;52.002;4.686;2023-03-13T06:08:31;99679.44;;;12.31;86.16
59337;BME280;45115;52.002;4.686;2023-03-13T06:10:59;99676.88;;;12.29;86.23
59337;BME280;45115;52.002;4.686;2023-03-13T06:13:26;99677.16;;;12.34;86.55
59337;BME280;45115;52.002;4.686;2023-03-13T06:15:58;99677.34;;;12.33;85.99
59337;BME280;45115;52.002;4.686;2023-03-13T06:18:44;99681.78;;;12.34;86.11
59337;BME280;45115;52.002;4.686;2023-03-13T06:21:11;99688.34;;;12.33;86.85
59337;BME280;45115;52.002;4.686;2023-03-13T06:23:38;99677.53;;;12.31;87.14
59337;BME280;45115;52.002;4.686;2023-03-13T06:26:06;99686.41;;;12.33;87.56
59337;BME280;45115;52.002;4.686;2023-03-13T06:28:33;99683.47;;;12.20;88.25
59337;BME280;45115;52.002;4.686;2023-03-13T06:31:02;99698.03;;;12.21;88.69
59337;BME280;45115;52.002;4.686;2023-03-13T06:33:29;99700.47;;;12.16;89.60
59337;BME280;45115;52.002;4.686;2023-03-13T06:35:56;99698.09;;;12.13;89.96
59337;BME280;45115;52.002;4.686;2023-03-13T06:38:24;99692.19;;;12.01;91.15
59337;BME280;45115;52.002;4.686;2023-03-13T06:40:51;99702.28;;;12.01;90.93
59337;BME280;45115;52.002;4.686;2023-03-13T06:43:18;99694.44;;;11.98;91.20
59337;BME280;45115;52.002;4.686;2023-03-13T06:45:44;99699.28;;;11.88;92.50
59337;BME280;45115;52.002;4.686;2023-03-13T06:48:12;99703.81;;;11.81;93.15
59337;BME280;45115;52.002;4.686;2023-03-13T06:50:40;99720.63;;;11.78;93.22
59337;BME280;45115;52.002;4.686;2023-03-13T06:53:08;99708.97;;;11.76;93.68
59337;BME280;45115;52.002;4.686;2023-03-13T06:55:39;99708.84;;;11.69;93.85
59337;BME280;45115;52.002;4.686;2023-03-13T06:58:06;99707.81;;;11.70;93.85
59337;BME280;45115;52.002;4.686;2023-03-13T07:00:32;99689.31;;;11.64;94.46
59337;BME280;45115;52.002;4.686;2023-03-13T07:02:59;99696.50;;;11.65;94.11
59337;BME280;45115;52.002;4.686;2023-03-13T07:05:27;99692.38;;;11.69;93.72
59337;BME280;45115;52.002;4.686;2023-03-13T07:07:54;99695.78;;;11.71;93.55
59337;BME280;45115;52.002;4.686;2023-03-13T07:10:20;99698.72;;;11.70;94.10
59337;BME280;45115;52.002;4.686;2023-03-13T07:12:47;99693.25;;;11.70;93.49
59337;BME280;45115;52.002;4.686;2023-03-13T07:15:14;99686.72;;;11.71;93.66
59337;BME280;45115;52.002;4.686;2023-03-13T07:17:40;99683.66;;;11.66;93.72
59337;BME280;45115;52.002;4.686;2023-03-13T07:20:08;99696.50;;;11.65;93.89
59337;BME280;45115;52.002;4.686;2023-03-13T07:22:37;99692.06;;;11.64;94.07
59337;BME280;45115;52.002;4.686;2023-03-13T07:25:04;99680.19;;;11.64;94.38
59337;BME280;45115;52.002;4.686;2023-03-13T07:27:31;99690.00;;;11.66;94.32
59337;BME280;45115;52.002;4.686;2023-03-13T07:29:57;99700.44;;;11.63;94.12
59337;BME280;45115;52.002;4.686;2023-03-13T07:32:24;99706.28;;;11.68;93.60
59337;BME280;45115;52.002;4.686;2023-03-13T07:34:50;99707.63;;;11.72;93.86
59337;BME280;45115;52.002;4.686;2023-03-13T07:37:17;99707.09;;;11.76;93.53
59337;BME280;45115;52.002;4.686;2023-03-13T07:39:45;99691.59;;;11.83;93.43
59337;BME280;45115;52.002;4.686;2023-03-13T07:42:12;99698.38;;;11.95;93.06
59337;BME280;45115;52.002;4.686;2023-03-13T07:44:39;99701.09;;;12.03;92.83
59337;BME280;45115;52.002;4.686;2023-03-13T07:47:06;99698.28;;;12.11;91.98
59337;BME280;45115;52.002;4.686;2023-03-13T07:49:33;99697.66;;;12.24;91.68
59337;BME280;45115;52.002;4.686;2023-03-13T07:52:04;99683.16;;;12.38;90.80
59337;BME280;45115;52.002;4.686;2023-03-13T07:54:30;99682.09;;;12.39;90.93
59337;BME280;45115;52.002;4.686;2023-03-13T07:57:00;99678.81;;;12.44;89.86
59337;BME280;45115;52.002;4.686;2023-03-13T07:59:26;99660.59;;;12.43;89.50
59337;BME280;45115;52.002;4.686;2023-03-13T08:01:53;99682.47;;;12.36;90.02
59337;BME280;45115;52.002;4.686;2023-03-13T08:04:20;99694.81;;;12.40;90.16
59337;BME280;45115;52.002;4.686;2023-03-13T08:06:46;99680.94;;;12.71;89.78
59337;BME280;45115;52.002;4.686;2023-03-13T08:09:13;99682.09;;;12.76;89.33
59337;BME280;45115;52.002;4.686;2023-03-13T08:11:40;99676.72;;;12.97;89.19
59337;BME280;45115;52.002;4.686;2023-03-13T08:14:10;99682.53;;;13.02;88.29
59337;BME280;45115;52.002;4.686;2023-03-13T08:16:36;99674.91;;;12.75;88.84
59337;BME280;45115;52.002;4.686;2023-03-13T08:19:03;99666.53;;;12.69;88.76
59337;BME280;45115;52.002;4.686;2023-03-13T08:21:31;99670.38;;;12.60;89.55
59337;BME280;45115;52.002;4.686;2023-03-13T08:24:00;99698.66;;;12.68;89.26
59337;BME280;45115;52.002;4.686;2023-03-13T08:26:30;99667.09;;;12.64;89.20
59337;BME280;45115;52.002;4.686;2023-03-13T08:28:58;99664.25;;;12.58;89.27
59337;BME280;45115;52.002;4.686;2023-03-13T08:31:28;99663.28;;;12.51;89.72
59337;BME280;45115;52.002;4.686;2023-03-13T08:33:55;99664.50;;;12.48;89.93
59337;BME280;45115;52.002;4.686;2023-03-13T08:36:23;99645.03;;;12.58;89.16
59337;BME280;45115;52.002;4.686;2023-03-13T08:38:51;99656.50;;;12.76;88.15
59337;BME280;45115;52.002;4.686;2023-03-13T08:41:21;99653.88;;;12.82;87.33
59337;BME280;45115;52.002;4.686;2023-03-13T08:43:50;99655.38;;;12.99;87.00
59337;BME280;45115;52.002;4.686;2023-03-13T08:46:17;99655.03;;;13.02;85.35
59337;BME280;45115;52.002;4.686;2023-03-13T08:48:47;99653.78;;;13.19;84.82
59337;BME280;45115;52.002;4.686;2023-03-13T08:51:14;99623.13;;;13.37;84.66
59337;BME280;45115;52.002;4.686;2023-03-13T08:53:42;99640.75;;;13.57;83.89
59337;BME280;45115;52.002;4.686;2023-03-13T08:56:11;99635.97;;;13.66;82.66
59337;BME280;45115;52.002;4.686;2023-03-13T08:58:38;99621.88;;;13.75;81.80
59337;BME280;45115;52.002;4.686;2023-03-13T09:01:06;99627.75;;;14.08;79.92
59337;BME280;45115;52.002;4.686;2023-03-13T09:03:33;99620.88;;;14.18;80.21
59337;BME280;45115;52.002;4.686;2023-03-13T09:06:02;99620.88;;;14.67;77.67
59337;BME280;45115;52.002;4.686;2023-03-13T09:08:30;99622.03;;;14.79;76.98
59337;BME280;45115;52.002;4.686;2023-03-13T09:10:57;99608.16;;;15.00;75.55
59337;BME280;45115;52.002;4.686;2023-03-13T09:13:25;99603.41;;;14.88;75.39
59337;BME280;45115;52.002;4.686;2023-03-13T09:15:55;99619.28;;;14.79;75.00
59337;BME280;45115;52.002;4.686;2023-03-13T09:18:22;99599.41;;;14.63;75.55
59337;BME280;45115;52.002;4.686;2023-03-13T09:20:49;99595.44;;;14.37;75.75
59337;BME280;45115;52.002;4.686;2023-03-13T09:23:18;99584.22;;;14.39;76.05
59337;BME280;45115;52.002;4.686;2023-03-13T09:25:45;99593.59;;;14.79;75.14
59337;BME280;45115;52.002;4.686;2023-03-13T09:28:12;99584.31;;;14.86;74.22
59337;BME280;45115;52.002;4.686;2023-03-13T09:30:39;99580.91;;;14.84;74.60
59337;BME280;45115;52.002;4.686;2023-03-13T09:33:05;99579.28;;;14.96;73.34
59337;BME280;45115;52.002;4.686;2023-03-13T09:35:32;99598.34;;;14.91;73.88
59337;BME280;45115;52.002;4.686;2023-03-13T09:37:59;99572.16;;;14.74;74.11
59337;BME280;45115;52.002;4.686;2023-03-13T09:40:27;99571.31;;;14.74;74.51
59337;BME280;45115;52.002;4.686;2023-03-13T09:42:56;99555.13;;;15.05;73.66
59337;BME280;45115;52.002;4.686;2023-03-13T09:45:29;99545.28;;;15.30;72.53
59337;BME280;45115;52.002;4.686;2023-03-13T09:48:01;99539.34;;;15.33;71.49
59337;BME280;45115;52.002;4.686;2023-03-13T09:50:33;99540.13;;;15.14;72.11
59337;BME280;45115;52.002;4.686;2023-03-13T09:53:03;99537.09;;;15.43;71.27
59337;BME280;45115;52.002;4.686;2023-03-13T09:55:34;99522.47;;;15.08;71.72
59337;BME280;45115;52.002;4.686;2023-03-13T09:58:03;99537.34;;;15.07;71.81
59337;BME280;45115;52.002;4.686;2023-03-13T10:00:35;99537.66;;;15.32;70.91
59337;BME280;45115;52.002;4.686;2023-03-13T10:03:16;99528.00;;;15.08;70.88
59337;BME280;45115;52.002;4.686;2023-03-13T10:05:46;99532.47;;;15.09;72.31
59337;BME280;45115;52.002;4.686;2023-03-13T10:08:16;99527.97;;;14.95;71.78
59337;BME280;45115;52.002;4.686;2023-03-13T10:10:48;99533.56;;;15.15;72.40
59337;BME280;45115;52.002;4.686;2023-03-13T10:13:20;99523.66;;;15.33;72.09
59337;BME280;45115;52.002;4.686;2023-03-13T10:15:50;99533.16;;;15.91;69.70
59337;BME280;45115;52.002;4.686;2023-03-13T10:18:19;99528.06;;;16.21;69.09
59337;BME280;45115;52.002;4.686;2023-03-13T10:20:49;99530.59;;;16.22;69.18
59337;BME280;45115;52.002;4.686;2023-03-13T10:23:20;99503.41;;;16.06;67.76
59337;BME280;45115;52.002;4.686;2023-03-13T10:25:49;99528.69;;;15.90;68.62
59337;BME280;45115;52.002;4.686;2023-03-13T10:28:17;99526.97;;;15.76;66.76
59337;BME280;45115;52.002;4.686;2023-03-13T10:30:46;99519.34;;;15.85;67.81
59337;BME280;45115;52.002;4.686;2023-03-13T10:33:22;99534.63;;;15.81;66.89
59337;BME280;45115;52.002;4.686;2023-03-13T10:36:01;99529.53;;;15.78;66.99
59337;BME280;45115;52.002;4.686;2023-03-13T10:38:32;99524.63;;;15.99;65.08
59337;BME280;45115;52.002;4.686;2023-03-13T10:41:06;99523.38;;;15.95;63.87
59337;BME280;45115;52.002;4.686;2023-03-13T10:43:34;99511.69;;;16.19;62.85
59337;BME280;45115;52.002;4.686;2023-03-13T10:46:01;99511.66;;;16.32;63.02
59337;BME280;45115;52.002;4.686;2023-03-13T10:48:30;99504.44;;;16.44;62.30
59337;BME280;45115;52.002;4.686;2023-03-13T10:51:01;99508.47;;;16.55;61.87
59337;BME280;45115;52.002;4.686;2023-03-13T10:53:32;99494.88;;;16.60;62.16
59337;BME280;45115;52.002;4.686;2023-03-13T10:56:07;99477.88;;;16.56;61.32
59337;BME280;45115;52.002;4.686;2023-03-13T10:58:40;99500.59;;;16.65;61.11
59337;BME280;45115;52.002;4.686;2023-03-13T11:01:18;99484.41;;;16.62;61.77
59337;BME280;45115;52.002;4.686;2023-03-13T11:03:47;99474.38;;;17.31;60.14
59337;BME280;45115;52.002;4.686;2023-03-13T11:06:27;99487.03;;;17.52;57.79
59337;BME280;45115;52.002;4.686;2023-03-13T11:09:09;99478.88;;;17.26;56.27
59337;BME280;45115;52.002;4.686;2023-03-13T11:11:47;99506.34;;;17.21;57.44
59337;BME280;45115;52.002;4.686;2023-03-13T11:14:16;99495.53;;;17.13;56.84
59337;BME280;45115;52.002;4.686;2023-03-13T11:16:48;99485.13;;;17.08;59.17
59337;BME280;45115;52.002;4.686;2023-03-13T11:19:38;99472.09;;;17.15;56.37
59337;BME280;45115;52.002;4.686;2023-03-13T11:22:25;99490.94;;;16.87;57.33
59337;BME280;45115;52.002;4.686;2023-03-13T11:25:00;99494.88;;;16.53;58.43
59337;BME280;45115;52.002;4.686;2023-03-13T11:27:34;99506.59;;;16.49;57.82
59337;BME280;45115;52.002;4.686;2023-03-13T11:30:10;99500.59;;;16.45;58.23
59337;BME280;45115;52.002;4.686;2023-03-13T11:32:42;99496.16;;;16.44;58.65
59337;BME280;45115;52.002;4.686;2023-03-13T11:35:20;99513.81;;;16.24;58.66
59337;BME280;45115;52.002;4.686;2023-03-13T11:37:48;99508.72;;;16.47;58.97
59337;BME280;45115;52.002;4.686;2023-03-13T11:40:19;99507.63;;;16.48;57.12
59337;BME280;45115;52.002;4.686;2023-03-13T11:43:00;99489.97;;;16.36;58.43
59337;BME280;45115;52.002;4.686;2023-03-13T11:45:49;99525.06;;;16.03;57.69
59337;BME280;45115;52.002;4.686;2023-03-13T11:48:28;99490.88;;;16.04;57.63
59337;BME280;45115;52.002;4.686;2023-03-13T11:51:05;99491.72;;;16.17;57.20
59337;BME280;45115;52.002;4.686;2023-03-13T11:53:50;99484.28;;;15.79;57.15
59337;BME280;45115;52.002;4.686;2023-03-13T11:56:27;99499.56;;;15.68;57.17
59337;BME280;45115;52.002;4.686;2023-03-13T11:59:08;99477.91;;;15.85;57.99
59337;BME280;45115;52.002;4.686;2023-03-13T12:01:47;99478.75;;;16.11;57.85
59337;BME280;45115;52.002;4.686;2023-03-13T12:04:21;99470.44;;;16.24;57.28
59337;BME280;45115;52.002;4.686;2023-03-13T12:06:51;99474.22;;;16.43;57.84
59337;BME280;45115;52.002;4.686;2023-03-13T12:09:25;99450.22;;;16.50;56.14
59337;BME280;45115;52.002;4.686;2023-03-13T12:11:57;99456.91;;;16.93;56.09
59337;BME280;45115;52.002;4.686;2023-03-13T12:14:31;99468.88;;;17.18;52.76
59337;BME280;45115;52.002;4.686;2023-03-13T12:17:01;99466.78;;;17.14;53.40
59337;BME280;45115;52.002;4.686;2023-03-13T12:19:31;99464.78;;;16.83;53.95
59337;BME280;45115;52.002;4.686;2023-03-13T12:22:07;99468.06;;;16.67;53.41
59337;BME280;45115;52.002;4.686;2023-03-13T12:24:41;99460.75;;;16.86;55.43
59337;BME280;45115;52.002;4.686;2023-03-13T12:27:16;99465.50;;;16.59;56.63
59337;BME280;45115;52.002;4.686;2023-03-13T12:29:48;99449.59;;;16.48;56.98
59337;BME280;45115;52.002;4.686;2023-03-13T12:32:23;99468.78;;;16.04;58.91
59337;BME280;45115;52.002;4.686;2023-03-13T12:34:58;99468.97;;;15.63;59.26
59337;BME280;45115;52.002;4.686;2023-03-13T12:37:30;99454.31;;;15.56;59.01
59337;BME280;45115;52.002;4.686;2023-03-13T12:40:03;99471.69;;;15.43;59.15
59337;BME280;45115;52.002;4.686;2023-03-13T12:42:44;99452.00;;;15.86;56.76
59337;BME280;45115;52.002;4.686;2023-03-13T12:45:16;99459.00;;;16.01;58.76
59337;BME280;45115;52.002;4.686;2023-03-13T12:47:50;99452.22;;;15.78;58.49
59337;BME280;45115;52.002;4.686;2023-03-13T12:50:31;99437.75;;;15.76;58.04
59337;BME280;45115;52.002;4.686;2023-03-13T12:53:19;99442.00;;;15.65;59.23
59337;BME280;45115;52.002;4.686;2023-03-13T12:56:10;99439.25;;;15.58;60.75
59337;BME280;45115;52.002;4.686;2023-03-13T12:58:42;99446.78;;;15.24;60.22
59337;BME280;45115;52.002;4.686;2023-03-13T13:01:18;99442.34;;;15.23;59.77
59337;BME280;45115;52.002;4.686;2023-03-13T13:03:51;99425.66;;;15.70;58.27
59337;BME280;45115;52.002;4.686;2023-03-13T13:06:19;99437.31;;;15.59;58.01
59337;BME280;45115;52.002;4.686;2023-03-13T13:08:49;99433.06;;;15.70;57.27
59337;BME280;45115;52.002;4.686;2023-03-13T13:11:54;99430.75;;;15.67;58.10
59337;BME280;45115;52.002;4.686;2023-03-13T13:17:53;99441.09;;;15.38;59.04
59337;BME280;45115;52.002;4.686;2023-03-13T13:20:43;99412.03;;;15.36;56.25
59337;BME280;45115;52.002;4.686;2023-03-13T13:23:32;99425.81;;;15.36;57.22
59337;BME280;45115;52.002;4.686;2023-03-13T13:32:35;99425.03;;;15.61;55.17
59337;BME280;45115;52.002;4.686;2023-03-13T13:35:17;99413.53;;;15.71;54.14